createdAt,value
2019-03-27T00:01:43.770Z,24.55
2019-03-27T00:04:12.264Z,24.12
2019-03-27T00:06:40.733Z,24.67
2019-03-27T00:09:09.206Z,26.20
2019-03-27T00:11:37.674Z,28.12
2019-03-27T00:14:06.227Z,32.05
2019-03-27T00:16:34.708Z,28.95
2019-03-27T00:19:03.221Z,24.87
2019-03-27T00:21:31.684Z,28.57
2019-03-27T00:24:00.162Z,25.57
2019-03-27T00:26:28.628Z,26.35
2019-03-27T00:28:57.117Z,26.55
2019-03-27T00:31:25.685Z,27.77
2019-03-27T00:33:54.151Z,30.60
2019-03-27T00:36:22.625Z,28.57
2019-03-27T00:38:51.100Z,29.25
2019-03-27T00:41:19.590Z,27.05
2019-03-27T00:43:48.054Z,25.52
2019-03-27T00:46:16.548Z,28.00
2019-03-27T00:48:45.017Z,25.40
2019-03-27T00:51:13.505Z,24.82
2019-03-27T00:53:41.970Z,27.40
2019-03-27T00:56:10.451Z,20.82
2019-03-27T00:58:38.950Z,23.18
2019-03-27T01:01:09.133Z,21.48
2019-03-27T01:03:37.754Z,19.45
2019-03-27T01:06:06.568Z,19.10
2019-03-27T01:08:35.132Z,17.40
2019-03-27T01:11:03.755Z,18.00
2019-03-27T01:13:32.246Z,21.10
2019-03-27T01:16:00.786Z,22.55
2019-03-27T01:18:29.352Z,18.20
2019-03-27T01:20:57.829Z,19.45
2019-03-27T01:23:26.311Z,18.92
2019-03-27T01:25:54.788Z,17.55
2019-03-27T01:28:23.362Z,18.98
2019-03-27T01:30:51.857Z,20.97
2019-03-27T01:33:20.336Z,17.17
2019-03-27T01:35:48.799Z,16.52
2019-03-27T01:38:17.296Z,18.55
2019-03-27T01:40:45.804Z,18.37
2019-03-27T01:43:14.267Z,18.80
2019-03-27T01:45:52.373Z,20.17
2019-03-27T01:48:13.027Z,17.50
2019-03-27T01:50:41.502Z,15.70
2019-03-27T01:53:09.991Z,16.60
2019-03-27T01:55:38.459Z,16.23
2019-03-27T01:58:06.939Z,14.35
2019-03-27T02:00:35.399Z,9.93
2019-03-27T02:03:03.987Z,11.83
2019-03-27T02:05:32.444Z,10.65
2019-03-27T02:08:00.914Z,12.05
2019-03-27T02:10:29.418Z,12.75
2019-03-27T02:12:57.952Z,15.98
2019-03-27T02:15:26.456Z,20.57
2019-03-27T02:17:54.927Z,21.05
2019-03-27T02:20:23.407Z,23.77
2019-03-27T02:22:51.986Z,20.12
2019-03-27T02:25:20.483Z,19.48
2019-03-27T02:27:48.973Z,29.77
2019-03-27T02:30:17.683Z,39.60
2019-03-27T02:32:46.150Z,38.05
2019-03-27T02:35:14.625Z,42.70
2019-03-27T02:37:43.116Z,44.77
2019-03-27T02:40:12.063Z,27.67
2019-03-27T02:42:40.565Z,21.87
2019-03-27T02:45:09.259Z,20.85
2019-03-27T02:47:37.865Z,20.50
2019-03-27T02:50:08.261Z,20.60
2019-03-27T02:52:36.819Z,18.92
2019-03-27T02:55:07.452Z,17.32
2019-03-27T02:57:36.385Z,17.30
2019-03-27T03:00:08.367Z,16.02
2019-03-27T03:02:36.834Z,16.75
2019-03-27T03:05:10.200Z,18.60
2019-03-27T03:07:38.668Z,18.50
2019-03-27T03:10:09.076Z,18.05
2019-03-27T03:12:37.554Z,17.70
2019-03-27T03:15:06.789Z,17.92
2019-03-27T03:17:35.321Z,18.52
2019-03-27T03:20:05.350Z,18.42
2019-03-27T03:22:33.815Z,19.70
2019-03-27T03:25:02.378Z,20.68
2019-03-27T03:27:30.866Z,25.27
2019-03-27T03:29:59.348Z,34.60
2019-03-27T03:32:27.820Z,43.68
2019-03-27T03:34:56.355Z,43.17
2019-03-27T03:37:24.848Z,31.95
2019-03-27T03:39:53.399Z,27.27
2019-03-27T03:42:21.955Z,23.77
2019-03-27T03:44:50.447Z,21.97
2019-03-27T03:47:18.954Z,20.52
2019-03-27T03:49:47.413Z,31.12
2019-03-27T03:52:16.339Z,54.73
2019-03-27T03:54:44.839Z,41.35
2019-03-27T03:57:13.573Z,40.12
2019-03-27T03:59:43.190Z,70.28
2019-03-27T04:02:13.497Z,57.60
2019-03-27T04:04:42.907Z,36.73
2019-03-27T04:07:11.426Z,57.98
2019-03-27T04:09:39.906Z,63.65
2019-03-27T04:12:08.386Z,55.70
2019-03-27T04:14:36.890Z,62.25
2019-03-27T04:17:17.156Z,72.03
2019-03-27T04:19:35.548Z,74.75
2019-03-27T04:22:04.048Z,66.60
2019-03-27T04:24:32.517Z,71.57
2019-03-27T04:27:01.024Z,77.70
2019-03-27T04:29:29.493Z,90.12
2019-03-27T04:31:57.959Z,86.82
2019-03-27T04:34:26.449Z,111.85
2019-03-27T04:36:54.919Z,214.70
2019-03-27T04:39:23.407Z,113.50
2019-03-27T04:41:51.874Z,79.27
2019-03-27T04:44:20.376Z,107.50
2019-03-27T04:46:48.848Z,77.90
2019-03-27T04:49:17.351Z,92.02
2019-03-27T04:51:45.832Z,203.83
2019-03-27T04:54:14.335Z,210.65
2019-03-27T04:56:42.815Z,208.32
2019-03-27T04:59:11.282Z,178.02
2019-03-27T05:01:39.784Z,155.03
2019-03-27T05:04:08.849Z,136.10
2019-03-27T05:06:37.417Z,104.47
2019-03-27T05:09:06.257Z,114.92
2019-03-27T05:11:34.760Z,120.60
2019-03-27T05:14:03.236Z,98.20
2019-03-27T05:16:31.717Z,115.57
2019-03-27T05:19:00.227Z,135.25
2019-03-27T05:21:28.721Z,127.05
2019-03-27T05:23:57.230Z,128.72
2019-03-27T05:26:25.718Z,126.82
2019-03-27T05:28:54.220Z,132.60
2019-03-27T05:31:22.730Z,132.07
2019-03-27T05:33:51.176Z,129.68
2019-03-27T05:36:19.651Z,121.97
2019-03-27T05:38:48.158Z,109.03
2019-03-27T05:41:16.640Z,97.90
2019-03-27T05:43:45.135Z,91.55
2019-03-27T05:46:13.621Z,85.60
2019-03-27T05:48:42.131Z,59.48
2019-03-27T05:51:10.630Z,41.02
2019-03-27T05:53:39.097Z,37.05
2019-03-27T05:56:07.578Z,41.80
2019-03-27T05:58:36.042Z,43.02
2019-03-27T06:01:04.551Z,47.48
2019-03-27T06:03:33.022Z,51.95
2019-03-27T06:06:01.507Z,52.05
2019-03-27T06:08:29.983Z,34.18
2019-03-27T06:10:58.483Z,39.05
2019-03-27T06:13:26.954Z,42.10
2019-03-27T06:15:55.488Z,44.15
2019-03-27T06:18:24.991Z,48.02
2019-03-27T06:20:53.465Z,50.20
2019-03-27T06:23:21.961Z,32.93
2019-03-27T06:25:50.420Z,35.48
2019-03-27T06:28:18.897Z,41.02
2019-03-27T06:30:47.379Z,44.85
2019-03-27T06:33:15.848Z,42.13
2019-03-27T06:35:44.345Z,41.73
2019-03-27T06:38:12.813Z,32.48
2019-03-27T06:40:41.331Z,37.83
2019-03-27T06:43:09.803Z,38.92
2019-03-27T06:45:38.371Z,36.13
2019-03-27T06:48:06.833Z,18.42
2019-03-27T06:50:35.326Z,14.73
2019-03-27T06:53:03.793Z,12.82
2019-03-27T06:55:32.289Z,13.32
2019-03-27T06:58:00.782Z,25.27
2019-03-27T07:00:37.446Z,11.97
2019-03-27T07:03:07.560Z,8.05
2019-03-27T07:05:36.089Z,10.08
2019-03-27T07:08:04.806Z,16.32
2019-03-27T07:10:33.269Z,8.53
2019-03-27T07:13:01.817Z,7.75
2019-03-27T07:15:30.289Z,8.80
2019-03-27T07:17:58.755Z,44.88
2019-03-27T07:20:27.258Z,18.50
2019-03-27T07:22:55.738Z,19.27
2019-03-27T07:25:25.602Z,6.60
2019-03-27T07:27:54.076Z,9.43
2019-03-27T07:30:22.714Z,10.93
2019-03-27T07:32:51.191Z,64.62
2019-03-27T07:35:19.714Z,9.60
2019-03-27T07:37:48.193Z,10.20
2019-03-27T07:40:16.831Z,8.35
2019-03-27T07:42:45.297Z,9.55
2019-03-27T07:45:14.135Z,9.78
2019-03-27T07:47:42.675Z,12.07
2019-03-27T07:50:11.565Z,9.23
2019-03-27T07:52:40.046Z,8.75
2019-03-27T07:55:18.855Z,8.75
2019-03-27T07:57:38.909Z,8.68
2019-03-27T08:00:13.645Z,9.48
2019-03-27T08:02:42.123Z,14.63
2019-03-27T08:05:10.933Z,8.65
2019-03-27T08:07:39.402Z,8.83
2019-03-27T08:10:08.328Z,8.70
2019-03-27T08:12:36.796Z,12.45
2019-03-27T08:15:07.145Z,10.30
2019-03-27T08:17:36.406Z,7.72
2019-03-27T08:20:07.364Z,8.33
2019-03-27T08:22:35.846Z,12.63
2019-03-27T08:25:06.646Z,8.25
2019-03-27T08:27:35.197Z,8.40
2019-03-27T08:30:05.306Z,29.45
2019-03-27T08:32:33.798Z,9.70
2019-03-27T08:35:02.277Z,13.88
2019-03-27T08:37:30.746Z,8.13
2019-03-27T08:39:59.210Z,11.30
2019-03-27T08:42:27.704Z,7.80
2019-03-27T08:44:56.177Z,49.40
2019-03-27T08:47:24.684Z,110.63
2019-03-27T08:49:53.171Z,52.03
2019-03-27T08:52:21.644Z,7.15
2019-03-27T08:54:50.115Z,4.08
2019-03-27T08:57:18.610Z,35.20
2019-03-27T08:59:47.081Z,16.05
2019-03-27T09:02:15.577Z,9.20
2019-03-27T09:04:44.048Z,8.48
2019-03-27T09:07:12.585Z,4.90
2019-03-27T09:09:41.066Z,8.58
2019-03-27T09:12:09.522Z,7.62
2019-03-27T09:14:38.021Z,6.30
2019-03-27T09:17:06.557Z,6.90
2019-03-27T09:19:36.372Z,7.55
2019-03-27T09:22:05.193Z,4.72
2019-03-27T09:24:33.742Z,5.97
2019-03-27T09:27:02.210Z,10.28
2019-03-27T09:29:30.716Z,11.40
2019-03-27T09:31:59.187Z,13.53
2019-03-27T09:34:27.733Z,17.87
2019-03-27T09:36:56.219Z,16.37
2019-03-27T09:39:24.685Z,14.95
2019-03-27T09:41:53.188Z,8.08
2019-03-27T09:44:21.679Z,7.72
2019-03-27T09:46:50.249Z,8.80
2019-03-27T09:49:18.722Z,5.45
2019-03-27T09:51:47.185Z,5.42
2019-03-27T09:54:15.676Z,6.15
2019-03-27T09:56:44.149Z,8.83
2019-03-27T09:59:12.616Z,6.30
2019-03-27T10:01:41.093Z,5.47
2019-03-27T10:04:09.555Z,7.33
2019-03-27T10:06:38.051Z,5.37
2019-03-27T10:09:07.753Z,8.28
2019-03-27T10:11:36.317Z,9.90
2019-03-27T10:14:05.053Z,8.95
2019-03-27T10:16:33.539Z,5.53
2019-03-27T10:19:01.995Z,4.80
2019-03-27T10:21:30.494Z,6.22
2019-03-27T10:23:58.955Z,10.68
2019-03-27T10:26:27.440Z,9.78
2019-03-27T10:28:55.900Z,9.68
2019-03-27T10:31:24.393Z,6.30
2019-03-27T10:33:52.962Z,7.85
2019-03-27T10:36:21.531Z,13.25
2019-03-27T10:38:49.996Z,6.58
2019-03-27T10:41:18.469Z,5.28
2019-03-27T10:43:46.961Z,7.47
2019-03-27T10:46:15.446Z,23.07
2019-03-27T10:48:52.635Z,20.62
2019-03-27T10:51:14.124Z,13.93
2019-03-27T10:53:42.791Z,14.28
2019-03-27T10:56:11.283Z,15.95
2019-03-27T10:58:39.752Z,12.25
2019-03-27T11:01:08.239Z,16.02
2019-03-27T11:03:36.722Z,19.45
2019-03-27T11:06:05.296Z,13.48
2019-03-27T11:08:33.757Z,9.80
2019-03-27T11:11:02.258Z,14.68
2019-03-27T11:13:30.743Z,10.38
2019-03-27T11:15:59.224Z,10.95
2019-03-27T11:18:27.829Z,26.37
2019-03-27T11:20:56.310Z,14.87
2019-03-27T11:23:24.770Z,11.53
2019-03-27T11:25:53.341Z,12.47
2019-03-27T11:28:21.801Z,10.10
2019-03-27T11:30:50.271Z,14.03
2019-03-27T11:33:18.775Z,13.50
2019-03-27T11:35:47.227Z,19.62
2019-03-27T11:38:15.894Z,13.50
2019-03-27T11:40:44.391Z,10.50
2019-03-27T11:43:12.871Z,10.05
2019-03-27T11:45:41.347Z,7.72
2019-03-27T11:48:09.916Z,8.85
2019-03-27T11:50:44.630Z,6.60
2019-03-27T11:53:08.659Z,7.50
2019-03-27T11:55:37.516Z,11.43
2019-03-27T11:58:06.070Z,13.60
2019-03-27T12:00:34.649Z,10.78
2019-03-27T12:03:03.233Z,10.20
2019-03-27T12:05:31.702Z,6.62
2019-03-27T12:08:00.188Z,13.03
2019-03-27T12:10:28.658Z,13.62
2019-03-27T12:12:57.257Z,9.63
2019-03-27T12:15:39.622Z,10.65
2019-03-27T12:18:08.831Z,9.20
2019-03-27T12:20:37.468Z,7.45
2019-03-27T12:23:05.958Z,10.90
2019-03-27T12:25:34.525Z,10.08
2019-03-27T12:28:03.063Z,6.95
2019-03-27T12:30:31.566Z,8.00
2019-03-27T12:33:00.048Z,7.45
2019-03-27T12:35:28.608Z,9.40
2019-03-27T12:37:57.157Z,10.25
2019-03-27T12:40:25.640Z,11.57
2019-03-27T12:42:54.115Z,6.95
2019-03-27T12:45:22.675Z,6.10
2019-03-27T12:47:51.158Z,8.58
2019-03-27T12:50:19.580Z,8.15
2019-03-27T12:52:48.149Z,10.35
2019-03-27T12:55:16.790Z,8.13
2019-03-27T12:57:45.292Z,5.53
2019-03-27T13:00:13.911Z,5.95
2019-03-27T13:02:42.382Z,6.28
2019-03-27T13:05:11.042Z,4.20
2019-03-27T13:07:49.450Z,5.40
2019-03-27T13:10:09.981Z,5.28
2019-03-27T13:12:38.444Z,8.65
2019-03-27T13:15:07.588Z,13.62
2019-03-27T13:17:36.063Z,13.20
2019-03-27T13:20:07.342Z,19.67
2019-03-27T13:22:38.264Z,9.05
2019-03-27T13:25:07.655Z,25.92
2019-03-27T13:27:36.162Z,25.52
2019-03-27T13:30:07.532Z,9.00
2019-03-27T13:32:36.097Z,6.92
2019-03-27T13:35:06.270Z,8.53
2019-03-27T13:37:34.760Z,5.22
2019-03-27T13:40:04.798Z,7.12
2019-03-27T13:42:33.272Z,4.95
2019-03-27T13:45:01.764Z,7.80
2019-03-27T13:47:30.220Z,2.80
2019-03-27T13:49:58.723Z,8.78
2019-03-27T13:52:27.361Z,18.75
2019-03-27T13:54:55.906Z,5.78
2019-03-27T13:57:24.386Z,15.25
2019-03-27T13:59:52.951Z,12.70
2019-03-27T14:02:21.414Z,7.10
2019-03-27T14:04:49.949Z,7.10
2019-03-27T14:07:18.422Z,21.25
2019-03-27T14:09:46.933Z,46.35
2019-03-27T14:12:15.435Z,11.05
2019-03-27T14:14:50.206Z,17.92
2019-03-27T14:17:14.126Z,8.58
2019-03-27T14:19:43.388Z,8.05
2019-03-27T14:22:11.856Z,6.35
2019-03-27T14:24:40.337Z,7.60
2019-03-27T14:27:08.816Z,6.00
2019-03-27T14:29:37.279Z,8.55
2019-03-27T14:32:05.846Z,9.83
2019-03-27T14:34:34.313Z,8.65
2019-03-27T14:37:03.895Z,10.63
2019-03-27T14:39:32.375Z,11.55
2019-03-27T14:42:00.859Z,10.65
2019-03-27T14:44:29.344Z,12.68
2019-03-27T14:46:57.855Z,10.50
2019-03-27T14:49:26.341Z,16.02
2019-03-27T14:52:07.423Z,30.90
2019-03-27T14:54:25.075Z,10.13
2019-03-27T14:56:53.547Z,12.35
2019-03-27T14:59:22.026Z,21.12
2019-03-27T15:01:50.492Z,11.68
2019-03-27T15:04:18.967Z,14.10
2019-03-27T15:06:47.473Z,14.53
2019-03-27T15:09:15.987Z,7.92
2019-03-27T15:11:44.520Z,13.20
2019-03-27T15:14:13.019Z,28.92
2019-03-27T15:16:41.488Z,12.35
2019-03-27T15:19:09.987Z,11.25
2019-03-27T15:21:38.485Z,16.12
2019-03-27T15:24:06.957Z,24.65
2019-03-27T15:26:35.458Z,6.60
2019-03-27T15:29:05.423Z,17.90
2019-03-27T15:31:33.907Z,9.23
2019-03-27T15:34:04.662Z,16.45
2019-03-27T15:36:33.160Z,10.13
2019-03-27T15:39:01.629Z,70.85
2019-03-27T15:41:30.109Z,36.83
2019-03-27T15:43:58.600Z,9.05
2019-03-27T15:46:27.210Z,25.95
2019-03-27T15:48:55.716Z,18.73
2019-03-27T15:51:25.475Z,10.13
2019-03-27T15:53:53.992Z,29.60
2019-03-27T15:56:25.552Z,50.55
2019-03-27T15:58:56.301Z,32.03
2019-03-27T16:01:25.756Z,12.73
2019-03-27T16:03:54.345Z,11.40
2019-03-27T16:06:22.897Z,11.25
2019-03-27T16:08:51.432Z,30.68
2019-03-27T16:11:19.928Z,33.95
2019-03-27T16:13:48.440Z,57.50
2019-03-27T16:16:16.982Z,44.27
2019-03-27T16:18:45.448Z,26.45
2019-03-27T16:21:13.937Z,25.17
2019-03-27T16:23:42.689Z,34.65
2019-03-27T16:26:11.191Z,29.50
2019-03-27T16:28:39.667Z,26.87
2019-03-27T16:31:08.497Z,49.15
2019-03-27T16:33:36.967Z,52.30
2019-03-27T16:36:05.704Z,42.08
2019-03-27T16:38:34.195Z,30.80
2019-03-27T16:41:02.667Z,54.50
2019-03-27T16:43:31.352Z,49.88
2019-03-27T16:45:59.836Z,44.40
2019-03-27T16:48:28.309Z,54.85
2019-03-27T16:50:56.821Z,54.58
2019-03-27T16:53:25.294Z,56.40
2019-03-27T16:55:53.960Z,60.00
2019-03-27T16:58:22.502Z,50.73
2019-03-27T17:00:50.975Z,38.80
2019-03-27T17:03:19.442Z,37.90
2019-03-27T17:05:53.769Z,42.23
2019-03-27T17:08:18.339Z,97.80
2019-03-27T17:10:46.808Z,56.48
2019-03-27T17:13:15.308Z,56.68
2019-03-27T17:15:45.380Z,69.85
2019-03-27T17:18:14.050Z,67.27
2019-03-27T17:20:42.526Z,102.87
2019-03-27T17:23:18.086Z,126.70
2019-03-27T17:25:41.426Z,120.65
2019-03-27T17:28:09.927Z,125.42
2019-03-27T17:30:38.402Z,132.32
2019-03-27T17:33:06.885Z,155.37
2019-03-27T17:35:35.465Z,156.25
2019-03-27T17:38:04.005Z,178.78
2019-03-27T17:40:32.563Z,200.45
2019-03-27T17:43:01.041Z,175.90
2019-03-27T17:45:29.548Z,173.90
2019-03-27T17:47:58.045Z,194.35
2019-03-27T17:50:26.556Z,166.65
2019-03-27T17:52:55.033Z,372.98
2019-03-27T17:55:23.712Z,446.25
2019-03-27T17:57:52.190Z,326.77
2019-03-27T18:00:25.389Z,365.70
2019-03-27T18:02:53.875Z,338.87
2019-03-27T18:05:23.268Z,349.25
2019-03-27T18:07:51.777Z,364.77
2019-03-27T18:10:20.250Z,361.48
2019-03-27T18:12:48.727Z,346.55
2019-03-27T18:15:17.244Z,353.50
2019-03-27T18:17:45.719Z,367.07
2019-03-27T18:20:14.292Z,347.70
2019-03-27T18:22:42.801Z,338.18
2019-03-27T18:25:11.351Z,333.13
2019-03-27T18:27:39.840Z,347.52
2019-03-27T18:30:08.885Z,334.20
2019-03-27T18:32:38.393Z,357.67
2019-03-27T18:35:08.049Z,355.07
2019-03-27T18:37:36.599Z,363.55
2019-03-27T18:40:07.270Z,303.77
2019-03-27T18:42:36.006Z,360.70
2019-03-27T18:45:07.378Z,322.52
2019-03-27T18:47:36.044Z,331.75
2019-03-27T18:50:07.407Z,323.23
2019-03-27T18:52:35.893Z,313.73
2019-03-27T18:55:06.924Z,325.60
2019-03-27T18:57:35.475Z,319.23
2019-03-27T19:00:06.925Z,313.37
2019-03-27T19:02:35.436Z,315.52
2019-03-27T19:05:05.698Z,336.75
2019-03-27T19:07:34.189Z,624.33
2019-03-27T19:10:02.790Z,316.30
2019-03-27T19:12:31.296Z,184.50
2019-03-27T19:14:59.768Z,219.13
2019-03-27T19:17:28.334Z,275.55
2019-03-27T19:19:56.804Z,263.05
2019-03-27T19:22:25.313Z,280.07
2019-03-27T19:24:53.824Z,161.32
2019-03-27T19:27:24.372Z,173.93
2019-03-27T19:29:52.877Z,273.27
2019-03-27T19:32:21.539Z,248.80
2019-03-27T19:34:51.215Z,209.40
2019-03-27T19:37:19.797Z,213.80
2019-03-27T19:39:48.303Z,186.35
2019-03-27T19:42:16.803Z,145.02
2019-03-27T19:44:45.275Z,93.10
2019-03-27T19:47:13.777Z,119.30
2019-03-27T19:49:42.376Z,108.40
2019-03-27T19:52:10.865Z,110.20
2019-03-27T19:54:39.372Z,121.22
2019-03-27T19:57:07.848Z,196.80
2019-03-27T19:59:36.356Z,311.20
2019-03-27T20:02:06.369Z,235.50
2019-03-27T20:04:34.857Z,127.50
2019-03-27T20:07:03.338Z,135.15
2019-03-27T20:09:32.032Z,158.97
2019-03-27T20:12:00.508Z,198.55
2019-03-27T20:14:28.989Z,227.82
2019-03-27T20:16:57.473Z,131.07
2019-03-27T20:19:26.056Z,116.12
2019-03-27T20:21:54.607Z,192.15
2019-03-27T20:24:23.099Z,169.72
2019-03-27T20:26:51.611Z,131.30
2019-03-27T20:29:20.083Z,115.55
2019-03-27T20:31:48.570Z,125.25
2019-03-27T20:34:17.082Z,132.80
2019-03-27T20:36:45.554Z,134.22
2019-03-27T20:39:14.039Z,140.68
2019-03-27T20:41:43.507Z,136.00
2019-03-27T20:44:12.052Z,114.97
2019-03-27T20:46:40.556Z,114.97
2019-03-27T20:49:09.037Z,111.22
2019-03-27T20:51:37.552Z,123.10
2019-03-27T20:54:06.028Z,124.80
2019-03-27T20:56:34.542Z,124.38
2019-03-27T20:59:03.363Z,100.72
2019-03-27T21:01:32.626Z,91.15
2019-03-27T21:04:01.256Z,125.95
2019-03-27T21:06:29.764Z,112.52
2019-03-27T21:08:58.238Z,103.50
2019-03-27T21:11:26.741Z,109.67
2019-03-27T21:13:55.208Z,82.35
2019-03-27T21:16:23.692Z,83.07
2019-03-27T21:18:52.322Z,75.52
2019-03-27T21:21:20.826Z,85.28
2019-03-27T21:23:49.298Z,72.80
2019-03-27T21:26:17.777Z,67.35
2019-03-27T21:28:46.288Z,84.13
2019-03-27T21:31:14.854Z,82.92
2019-03-27T21:33:43.342Z,85.15
2019-03-27T21:36:11.893Z,64.15
2019-03-27T21:38:40.399Z,81.50
2019-03-27T21:41:08.901Z,72.03
2019-03-27T21:43:37.367Z,77.03
2019-03-27T21:46:05.859Z,75.00
2019-03-27T21:48:34.377Z,87.12
2019-03-27T21:51:02.870Z,79.00
2019-03-27T21:53:31.342Z,86.28
2019-03-27T21:55:59.851Z,89.75
2019-03-27T21:58:28.354Z,84.32
2019-03-27T22:00:56.852Z,55.25
2019-03-27T22:03:25.338Z,55.95
2019-03-27T22:05:53.845Z,114.92
2019-03-27T22:08:22.320Z,162.30
2019-03-27T22:10:50.824Z,167.50
2019-03-27T22:13:19.339Z,124.95
2019-03-27T22:15:47.806Z,80.80
2019-03-27T22:18:16.278Z,65.10
2019-03-27T22:20:44.847Z,61.88
2019-03-27T22:23:13.300Z,69.67
2019-03-27T22:25:41.803Z,67.05
2019-03-27T22:28:10.284Z,59.95
2019-03-27T22:30:38.807Z,58.58
2019-03-27T22:33:07.408Z,65.80
2019-03-27T22:35:35.871Z,50.78
2019-03-27T22:38:04.447Z,52.33
2019-03-27T22:40:32.937Z,65.80
2019-03-27T22:43:01.430Z,75.60
2019-03-27T22:45:29.914Z,69.95
2019-03-27T22:47:58.380Z,70.83
2019-03-27T22:50:27.216Z,85.05
2019-03-27T22:52:55.709Z,98.65
2019-03-27T22:55:24.176Z,96.78
2019-03-27T22:57:52.655Z,86.60
2019-03-27T23:00:23.323Z,106.30
2019-03-27T23:02:51.802Z,77.92
2019-03-27T23:05:20.352Z,92.02
2019-03-27T23:07:48.933Z,127.62
2019-03-27T23:10:17.418Z,111.95
2019-03-27T23:12:45.894Z,82.22
2019-03-27T23:15:14.607Z,97.02
2019-03-27T23:17:43.090Z,121.50
2019-03-27T23:20:11.936Z,130.12
2019-03-27T23:22:40.475Z,110.37
2019-03-27T23:25:09.510Z,94.40
2019-03-27T23:27:37.974Z,92.65
2019-03-27T23:30:10.577Z,89.92
2019-03-27T23:32:39.115Z,90.60
2019-03-27T23:35:08.882Z,100.25
2019-03-27T23:37:37.404Z,104.38
2019-03-27T23:40:07.850Z,92.45
2019-03-27T23:42:36.587Z,99.58
2019-03-27T23:45:07.236Z,86.75
2019-03-27T23:47:35.704Z,95.80
2019-03-27T23:50:05.828Z,87.00
2019-03-27T23:52:34.320Z,70.60
2019-03-27T23:55:02.788Z,63.00
2019-03-27T23:57:31.288Z,57.50
2019-03-27T23:59:59.754Z,60.50
